createdAt,value
2023-07-21T00:00:15.453Z,2.13
2023-07-21T00:02:44.521Z,2.40
2023-07-21T00:05:17.228Z,2.90
2023-07-21T00:07:49.225Z,2.70
2023-07-21T00:10:23.180Z,2.55
2023-07-21T00:12:52.132Z,2.60
2023-07-21T00:15:19.841Z,2.30
2023-07-21T00:17:48.473Z,2.38
2023-07-21T00:20:23.450Z,2.35
2023-07-21T00:22:50.409Z,2.60
2023-07-21T00:25:17.065Z,2.85
2023-07-21T00:27:44.758Z,2.83
2023-07-21T00:30:14.572Z,2.13
2023-07-21T00:32:43.548Z,2.50
2023-07-21T00:35:11.278Z,3.00
2023-07-21T00:40:30.359Z,2.25
2023-07-21T00:42:58.989Z,3.00
2023-07-21T00:45:28.707Z,2.90
2023-07-21T00:47:57.882Z,3.70
2023-07-21T00:50:26.996Z,2.50
2023-07-21T00:52:53.700Z,2.60
2023-07-21T00:55:20.772Z,2.40
2023-07-21T00:57:49.965Z,2.92
2023-07-21T01:00:19.175Z,2.80
2023-07-21T01:02:50.777Z,2.95
2023-07-21T01:05:25.012Z,2.78
2023-07-21T01:07:52.114Z,2.88
2023-07-21T01:10:22.893Z,3.10
2023-07-21T01:12:49.624Z,3.40
2023-07-21T01:15:17.000Z,2.95
2023-07-21T01:17:44.069Z,3.00
2023-07-21T01:20:16.085Z,3.07
2023-07-21T01:22:54.109Z,3.10
2023-07-21T01:25:22.760Z,3.00
2023-07-21T01:27:51.761Z,2.92
2023-07-21T01:30:26.368Z,3.28
2023-07-21T01:32:56.943Z,3.55
2023-07-21T01:35:24.653Z,3.35
2023-07-21T01:37:51.313Z,3.33
2023-07-21T01:40:18.464Z,3.80
2023-07-21T01:42:47.277Z,3.53
2023-07-21T01:45:16.630Z,3.60
2023-07-21T01:47:47.299Z,3.55
2023-07-21T01:50:20.325Z,3.35
2023-07-21T01:52:50.225Z,3.40
2023-07-21T01:55:34.081Z,3.50
2023-07-21T01:58:04.738Z,3.88
2023-07-21T02:00:49.722Z,3.33
2023-07-21T02:03:18.617Z,3.65
2023-07-21T02:05:45.306Z,3.55
2023-07-21T02:08:14.258Z,3.33
2023-07-21T02:10:45.634Z,3.33
2023-07-21T02:13:12.840Z,3.65
2023-07-21T02:15:39.581Z,3.00
2023-07-21T02:18:08.441Z,3.22
2023-07-21T02:20:37.480Z,3.03
2023-07-21T02:23:04.028Z,3.75
2023-07-21T02:25:32.911Z,3.00
2023-07-21T02:28:01.689Z,2.97
2023-07-21T02:30:33.052Z,3.28
2023-07-21T02:33:01.939Z,2.90
2023-07-21T02:35:31.296Z,3.17
2023-07-21T02:38:02.945Z,3.50
2023-07-21T02:40:33.083Z,3.65
2023-07-21T02:42:59.710Z,4.00
2023-07-21T02:45:28.398Z,3.53
2023-07-21T02:47:57.259Z,3.75
2023-07-21T02:50:25.339Z,3.67
2023-07-21T02:52:56.003Z,3.25
2023-07-21T02:55:22.679Z,3.42
2023-07-21T02:57:53.125Z,3.63
2023-07-21T03:00:21.896Z,4.13
2023-07-21T03:02:51.420Z,3.85
2023-07-21T03:05:23.682Z,3.72
2023-07-21T03:07:50.296Z,4.05
2023-07-21T03:10:19.286Z,3.50
2023-07-21T03:12:48.689Z,2.92
2023-07-21T03:15:16.222Z,2.88
2023-07-21T03:17:44.975Z,2.80
2023-07-21T03:20:16.744Z,3.05
2023-07-21T03:22:44.362Z,3.30
2023-07-21T03:25:12.259Z,3.33
2023-07-21T03:30:10.950Z,3.20
2023-07-21T03:32:38.309Z,3.00
2023-07-21T03:35:06.189Z,3.30
2023-07-21T03:37:35.875Z,3.15
2023-07-21T03:40:16.173Z,3.30
2023-07-21T03:42:46.164Z,3.03
2023-07-21T03:45:14.767Z,2.92
2023-07-21T03:47:41.391Z,3.53
2023-07-21T03:50:09.460Z,3.38
2023-07-21T03:52:37.230Z,3.30
2023-07-21T03:55:04.732Z,3.33
2023-07-21T03:57:41.207Z,3.33
2023-07-21T04:00:09.003Z,3.15
2023-07-21T04:02:35.982Z,3.20
2023-07-21T04:05:04.805Z,3.15
2023-07-21T04:07:32.573Z,3.28
2023-07-21T04:10:03.911Z,3.30
2023-07-21T04:12:30.454Z,3.35
2023-07-21T04:14:56.985Z,3.28
2023-07-21T04:17:25.810Z,3.20
2023-07-21T04:19:54.740Z,3.30
2023-07-21T04:22:24.105Z,3.20
2023-07-21T04:24:50.742Z,3.33
2023-07-21T04:27:17.429Z,3.30
2023-07-21T04:29:49.033Z,3.63
2023-07-21T04:32:15.605Z,3.03
2023-07-21T04:34:44.463Z,2.97
2023-07-21T04:37:11.034Z,2.97
2023-07-21T04:39:37.689Z,2.30
2023-07-21T04:42:07.145Z,1.90
2023-07-21T04:44:33.843Z,2.03
2023-07-21T04:47:00.448Z,2.13
2023-07-21T04:49:26.948Z,2.40
2023-07-21T04:51:53.458Z,2.75
2023-07-21T04:54:24.750Z,3.05
2023-07-21T04:56:53.741Z,2.75
2023-07-21T04:59:27.393Z,2.92
2023-07-21T05:01:58.154Z,3.28
2023-07-21T05:04:24.719Z,3.08
2023-07-21T05:06:51.402Z,2.60
2023-07-21T05:09:21.080Z,2.50
2023-07-21T05:11:47.662Z,3.10
2023-07-21T05:14:19.057Z,3.00
2023-07-21T05:16:45.733Z,3.50
2023-07-21T05:19:12.234Z,3.25
2023-07-21T05:21:38.862Z,2.90
2023-07-21T05:24:05.566Z,3.15
2023-07-21T05:26:34.502Z,3.15
2023-07-21T05:29:00.999Z,3.00
2023-07-21T05:31:29.907Z,3.38
2023-07-21T05:33:58.882Z,3.15
2023-07-21T05:36:26.430Z,3.45
2023-07-21T05:38:53.336Z,3.33
2023-07-21T05:41:23.478Z,3.70
2023-07-21T05:43:49.973Z,3.10
2023-07-21T05:46:19.081Z,3.53
2023-07-21T05:48:45.731Z,3.67
2023-07-21T05:51:13.567Z,3.53
2023-07-21T05:53:43.156Z,3.42
2023-07-21T05:56:09.723Z,3.60
2023-07-21T05:58:38.380Z,3.47
2023-07-21T06:01:05.260Z,3.35
2023-07-21T06:03:32.223Z,3.30
2023-07-21T06:05:59.058Z,3.33
2023-07-21T06:08:28.213Z,3.45
2023-07-21T06:11:00.685Z,3.83
2023-07-21T06:13:30.958Z,3.45
2023-07-21T06:15:59.760Z,3.67
2023-07-21T06:18:26.339Z,3.67
2023-07-21T06:20:55.414Z,4.00
2023-07-21T06:23:21.967Z,4.05
2023-07-21T06:25:49.158Z,3.60
2023-07-21T06:28:15.912Z,3.78
2023-07-21T06:30:42.524Z,3.47
2023-07-21T06:33:10.092Z,3.50
2023-07-21T06:35:42.683Z,3.85
2023-07-21T06:38:13.965Z,3.75
2023-07-21T06:40:40.529Z,3.90
2023-07-21T06:43:07.080Z,4.30
2023-07-21T06:45:34.776Z,3.40
2023-07-21T06:48:04.491Z,3.95
2023-07-21T06:50:30.989Z,3.88
2023-07-21T06:52:57.540Z,3.70
2023-07-21T06:55:24.050Z,3.35
2023-07-21T06:57:50.710Z,3.25
2023-07-21T07:00:17.455Z,2.93
2023-07-21T07:02:50.392Z,3.83
2023-07-21T07:05:20.307Z,3.42
2023-07-21T07:07:47.070Z,3.05
2023-07-21T07:10:13.631Z,3.10
2023-07-21T07:12:42.501Z,3.23
2023-07-21T07:15:10.318Z,3.38
2023-07-21T07:17:39.219Z,3.08
2023-07-21T07:20:08.413Z,3.30
2023-07-21T07:22:37.228Z,3.80
2023-07-21T07:25:06.786Z,3.70
2023-07-21T07:27:33.370Z,3.80
2023-07-21T07:29:59.858Z,3.70
2023-07-21T07:32:26.503Z,2.42
2023-07-21T07:34:59.867Z,3.07
2023-07-21T07:37:27.979Z,3.00
2023-07-21T07:39:54.528Z,2.85
2023-07-21T07:42:23.727Z,3.50
2023-07-21T07:44:52.260Z,2.95
2023-07-21T07:47:21.104Z,2.60
2023-07-21T07:49:47.805Z,2.70
2023-07-21T07:52:19.759Z,2.50
2023-07-21T07:54:46.360Z,2.90
2023-07-21T07:57:15.768Z,2.90
2023-07-21T07:59:48.276Z,2.63
2023-07-21T08:02:14.844Z,3.55
2023-07-21T08:04:41.468Z,2.70
2023-07-21T08:07:10.977Z,3.08
2023-07-21T08:09:39.772Z,2.70
2023-07-21T08:12:06.612Z,2.63
2023-07-21T08:14:33.258Z,2.72
2023-07-21T08:17:03.703Z,2.50
2023-07-21T08:19:35.641Z,2.25
2023-07-21T08:22:06.253Z,2.28
2023-07-21T08:24:33.637Z,2.53
2023-07-21T08:27:00.510Z,1.58
2023-07-21T08:29:27.369Z,1.65
2023-07-21T08:31:56.471Z,1.30
2023-07-21T08:34:23.050Z,1.60
2023-07-21T08:36:54.578Z,2.00
2023-07-21T08:39:25.298Z,1.60
2023-07-21T08:41:54.214Z,1.13
2023-07-21T08:44:23.784Z,1.58
2023-07-21T08:46:52.896Z,1.45
2023-07-21T08:49:19.574Z,1.58
2023-07-21T08:51:46.388Z,1.13
2023-07-21T08:54:15.803Z,0.90
2023-07-21T08:56:44.585Z,0.90
2023-07-21T08:59:15.943Z,1.25
2023-07-21T09:01:46.758Z,0.93
2023-07-21T09:04:20.687Z,1.25
2023-07-21T09:07:06.760Z,1.20
2023-07-21T09:09:33.608Z,1.05
2023-07-21T09:12:08.295Z,1.30
2023-07-21T09:14:41.833Z,1.10
2023-07-21T09:17:12.697Z,1.30
2023-07-21T09:19:45.170Z,1.17
2023-07-21T09:22:14.968Z,0.90
2023-07-21T09:24:52.768Z,1.10
2023-07-21T09:27:23.367Z,1.20
2023-07-21T09:29:52.371Z,1.10
2023-07-21T09:32:22.587Z,1.10
2023-07-21T09:35:07.983Z,1.10
2023-07-21T09:37:35.659Z,1.27
2023-07-21T09:40:11.228Z,1.23
2023-07-21T09:42:39.483Z,1.17
2023-07-21T09:45:09.859Z,1.00
2023-07-21T09:47:45.065Z,1.20
2023-07-21T09:50:16.361Z,1.10
2023-07-21T09:52:47.866Z,1.30
2023-07-21T09:55:22.529Z,1.20
2023-07-21T09:57:53.065Z,1.27
2023-07-21T10:00:28.120Z,1.10
2023-07-21T10:02:57.586Z,1.35
2023-07-21T10:05:24.360Z,1.52
2023-07-21T10:07:51.794Z,1.35
2023-07-21T10:10:19.655Z,1.52
2023-07-21T10:12:47.786Z,1.35
2023-07-21T10:15:34.569Z,1.60
2023-07-21T10:18:02.741Z,1.38
2023-07-21T10:20:44.452Z,1.77
2023-07-21T10:23:15.645Z,2.15
2023-07-21T10:26:02.397Z,1.17
2023-07-21T10:28:31.640Z,1.00
2023-07-21T10:31:26.117Z,0.93
2023-07-21T10:34:15.454Z,1.10
2023-07-21T10:36:54.211Z,1.30
2023-07-21T10:39:24.383Z,1.00
2023-07-21T10:41:59.642Z,1.60
2023-07-21T10:44:39.492Z,1.13
2023-07-21T10:47:20.561Z,1.20
2023-07-21T10:49:53.487Z,0.93
2023-07-21T10:52:20.781Z,1.25
2023-07-21T10:57:18.559Z,2.15
2023-07-21T10:59:47.506Z,1.70
2023-07-21T11:02:27.541Z,1.42
2023-07-21T11:04:54.208Z,1.10
2023-07-21T11:07:28.637Z,1.00
2023-07-21T11:10:01.451Z,1.13
2023-07-21T11:12:29.960Z,1.10
2023-07-21T11:17:26.034Z,0.90
2023-07-21T11:20:05.790Z,1.05
2023-07-21T11:22:39.326Z,1.00
2023-07-21T11:25:12.095Z,1.33
2023-07-21T11:27:46.500Z,1.17
2023-07-21T11:30:19.937Z,1.00
2023-07-21T11:32:49.482Z,1.08
2023-07-21T11:35:16.193Z,0.90
2023-07-21T11:37:45.982Z,1.00
2023-07-21T11:40:20.761Z,1.20
2023-07-21T11:42:49.314Z,1.20
2023-07-21T11:45:35.530Z,0.88
2023-07-21T11:48:14.066Z,0.90
2023-07-21T11:50:53.619Z,0.98
2023-07-21T11:53:24.936Z,1.20
2023-07-21T11:55:54.670Z,1.17
2023-07-21T11:58:22.509Z,1.35
2023-07-21T12:00:50.408Z,1.50
2023-07-21T12:03:19.649Z,1.42
2023-07-21T12:05:49.050Z,1.10
2023-07-21T12:08:15.552Z,1.25
2023-07-21T12:10:44.545Z,1.00
2023-07-21T12:13:15.941Z,1.02
2023-07-21T12:15:46.759Z,1.30
2023-07-21T12:18:16.147Z,1.00
2023-07-21T12:20:42.835Z,1.23
2023-07-21T12:23:12.001Z,1.07
2023-07-21T12:25:39.680Z,0.95
2023-07-21T12:28:08.458Z,1.03
2023-07-21T12:30:39.618Z,1.00
2023-07-21T12:33:08.662Z,1.20
2023-07-21T12:35:35.271Z,1.42
2023-07-21T12:38:04.090Z,1.33
2023-07-21T12:40:31.039Z,1.33
2023-07-21T12:43:00.890Z,1.15
2023-07-21T12:45:28.714Z,1.25
2023-07-21T12:47:58.377Z,1.40
2023-07-21T12:50:26.524Z,1.38
2023-07-21T12:52:55.634Z,1.20
2023-07-21T12:55:22.127Z,1.35
2023-07-21T12:57:53.409Z,1.05
2023-07-21T13:00:19.951Z,1.00
2023-07-21T13:02:46.962Z,1.00
2023-07-21T13:05:15.805Z,1.27
2023-07-21T13:07:45.609Z,1.52
2023-07-21T13:10:15.616Z,1.52
2023-07-21T13:12:44.470Z,1.20
2023-07-21T13:15:11.086Z,1.40
2023-07-21T13:17:37.820Z,1.42
2023-07-21T13:20:14.898Z,1.20
2023-07-21T13:22:45.076Z,1.52
2023-07-21T13:25:11.923Z,1.40
2023-07-21T13:27:41.056Z,1.40
2023-07-21T13:30:12.115Z,1.13
2023-07-21T13:32:43.593Z,1.60
2023-07-21T13:35:10.341Z,1.40
2023-07-21T13:37:36.996Z,1.20
2023-07-21T13:40:07.243Z,1.40
2023-07-21T13:42:38.684Z,1.10
2023-07-21T13:45:05.707Z,1.40
2023-07-21T13:47:34.893Z,1.60
2023-07-21T13:50:01.627Z,1.50
2023-07-21T13:52:28.950Z,1.58
2023-07-21T13:54:55.562Z,1.83
2023-07-21T13:57:26.544Z,1.73
2023-07-21T13:59:54.269Z,1.60
2023-07-21T14:02:20.829Z,1.65
2023-07-21T14:04:48.360Z,1.85
2023-07-21T14:07:14.885Z,2.30
2023-07-21T14:09:41.493Z,2.38
2023-07-21T14:12:08.260Z,2.72
2023-07-21T14:14:34.803Z,2.90
2023-07-21T14:17:01.494Z,2.80
2023-07-21T14:19:28.252Z,3.00
2023-07-21T14:21:54.825Z,3.40
2023-07-21T14:24:21.460Z,4.05
2023-07-21T14:26:51.447Z,3.40
2023-07-21T14:29:22.504Z,3.65
2023-07-21T14:31:51.292Z,3.47
2023-07-21T14:34:18.040Z,3.80
2023-07-21T14:36:46.900Z,3.70
2023-07-21T14:39:19.298Z,3.85
2023-07-21T14:41:46.263Z,3.20
2023-07-21T14:44:16.251Z,4.00
2023-07-21T14:46:45.168Z,4.10
2023-07-21T14:49:13.874Z,4.07
2023-07-21T14:51:40.714Z,4.00
2023-07-21T14:54:07.724Z,4.17
2023-07-21T14:56:34.321Z,5.15
2023-07-21T14:59:02.588Z,4.88
2023-07-21T15:01:31.276Z,4.45
2023-07-21T15:03:58.714Z,4.57
2023-07-21T15:06:25.478Z,4.30
2023-07-21T15:08:54.784Z,3.88
2023-07-21T15:11:21.389Z,4.70
2023-07-21T15:13:52.341Z,4.35
2023-07-21T15:16:18.943Z,3.78
2023-07-21T15:18:45.562Z,3.83
2023-07-21T15:21:12.272Z,3.83
2023-07-21T15:23:38.827Z,4.10
2023-07-21T15:26:05.493Z,4.13
2023-07-21T15:28:31.996Z,4.15
2023-07-21T15:31:06.032Z,3.72
2023-07-21T15:33:32.647Z,3.90
2023-07-21T15:36:03.690Z,4.00
2023-07-21T15:38:30.696Z,3.75
2023-07-21T15:41:00.558Z,4.32
2023-07-21T15:43:29.228Z,3.63
2023-07-21T15:45:58.746Z,3.63
2023-07-21T15:48:29.555Z,4.20
2023-07-21T15:50:58.337Z,3.70
2023-07-21T15:53:24.974Z,3.95
2023-07-21T15:55:54.286Z,3.67
2023-07-21T15:58:20.838Z,3.90
2023-07-21T16:00:59.241Z,3.72
2023-07-21T16:03:29.203Z,4.22
2023-07-21T16:05:56.476Z,4.05
2023-07-21T16:08:23.765Z,4.45
2023-07-21T16:10:52.539Z,4.50
2023-07-21T16:13:21.944Z,3.33
2023-07-21T16:15:53.163Z,3.38
2023-07-21T16:18:23.084Z,3.65
2023-07-21T16:20:49.560Z,3.85
2023-07-21T16:23:16.102Z,4.25
2023-07-21T16:25:45.338Z,4.05
2023-07-21T16:28:11.880Z,4.75
2023-07-21T16:30:40.030Z,4.07
2023-07-21T16:33:06.606Z,4.70
2023-07-21T16:35:33.875Z,4.18
2023-07-21T16:38:00.860Z,4.70
2023-07-21T16:40:28.011Z,3.90
2023-07-21T16:42:54.934Z,4.60
2023-07-21T16:45:21.633Z,4.68
2023-07-21T16:47:50.393Z,4.68
2023-07-21T16:50:16.942Z,4.68
2023-07-21T16:52:43.524Z,4.40
2023-07-21T16:55:10.372Z,4.70
2023-07-21T16:57:39.333Z,4.40
2023-07-21T17:00:13.355Z,5.10
2023-07-21T17:02:42.821Z,5.28
2023-07-21T17:05:28.989Z,4.80
2023-07-21T17:07:58.814Z,4.63
2023-07-21T17:10:27.745Z,4.95
2023-07-21T17:12:57.328Z,4.10
2023-07-21T17:15:25.960Z,3.90
2023-07-21T17:17:54.966Z,2.70
2023-07-21T17:20:24.083Z,2.10
2023-07-21T17:22:50.593Z,2.55
2023-07-21T17:25:17.891Z,2.30
2023-07-21T17:27:45.167Z,2.03
2023-07-21T17:30:12.240Z,2.35
2023-07-21T17:32:41.054Z,2.10
2023-07-21T17:35:08.723Z,2.78
2023-07-21T17:37:39.625Z,2.30
2023-07-21T17:40:11.321Z,2.30
2023-07-21T17:42:40.999Z,1.90
2023-07-21T17:45:08.081Z,2.70
2023-07-21T17:47:37.308Z,2.40
2023-07-21T17:50:04.715Z,2.30
2023-07-21T17:52:32.653Z,2.30
2023-07-21T17:55:01.653Z,2.20
2023-07-21T17:57:31.014Z,2.72
2023-07-21T17:59:57.630Z,2.42
2023-07-21T18:02:24.462Z,2.10
2023-07-21T18:04:51.075Z,2.23
2023-07-21T18:07:17.569Z,2.30
2023-07-21T18:09:44.178Z,2.47
2023-07-21T18:12:13.290Z,2.63
2023-07-21T18:14:42.339Z,2.35
2023-07-21T18:17:08.835Z,2.35
2023-07-21T18:19:38.013Z,2.38
2023-07-21T18:22:05.140Z,2.25
2023-07-21T18:24:31.733Z,2.22
2023-07-21T18:26:58.912Z,2.85
2023-07-21T18:29:28.254Z,2.45
2023-07-21T18:31:54.956Z,2.72
2023-07-21T18:34:22.523Z,2.25
2023-07-21T18:36:49.281Z,2.40
2023-07-21T18:39:16.664Z,2.60
2023-07-21T18:41:48.028Z,2.13
2023-07-21T18:44:14.590Z,2.72
2023-07-21T18:46:41.160Z,2.15
2023-07-21T18:49:12.247Z,2.80
2023-07-21T18:51:38.758Z,2.35
2023-07-21T18:54:07.689Z,2.83
2023-07-21T18:56:36.500Z,2.63
2023-07-21T18:59:05.275Z,2.47
2023-07-21T19:01:34.472Z,2.88
2023-07-21T19:04:02.255Z,2.60
2023-07-21T19:09:00.468Z,2.15
2023-07-21T19:11:32.132Z,2.40
2023-07-21T19:14:01.550Z,2.67
2023-07-21T19:16:30.806Z,2.58
2023-07-21T19:18:59.953Z,2.70
2023-07-21T19:21:30.114Z,2.70
2023-07-21T19:24:01.217Z,2.90
2023-07-21T19:26:35.160Z,2.80
2023-07-21T19:29:02.016Z,2.50
2023-07-21T19:31:34.868Z,2.47
2023-07-21T19:34:07.024Z,2.63
2023-07-21T19:36:33.701Z,3.03
2023-07-21T19:39:05.068Z,2.75
2023-07-21T19:41:33.800Z,3.13
2023-07-21T19:44:00.684Z,2.95
2023-07-21T19:46:32.636Z,3.17
2023-07-21T19:48:59.968Z,3.13
2023-07-21T19:51:28.882Z,3.30
2023-07-21T19:53:58.530Z,2.85
2023-07-21T19:56:25.165Z,3.40
2023-07-21T19:58:53.065Z,3.40
2023-07-21T20:01:27.063Z,3.00
2023-07-21T20:03:56.238Z,3.17
2023-07-21T20:06:23.268Z,3.25
2023-07-21T20:08:49.946Z,3.43
2023-07-21T20:11:16.443Z,3.70
2023-07-21T20:13:42.963Z,3.45
2023-07-21T20:16:09.518Z,3.20
2023-07-21T20:18:36.540Z,3.58
2023-07-21T20:21:10.354Z,4.53
2023-07-21T20:23:36.912Z,5.00
2023-07-21T20:26:09.434Z,5.35
2023-07-21T20:28:38.519Z,5.32
2023-07-21T20:31:05.887Z,4.85
2023-07-21T20:33:34.827Z,5.90
2023-07-21T20:36:05.686Z,5.45
2023-07-21T20:38:32.710Z,5.30
2023-07-21T20:41:08.266Z,5.13
2023-07-21T20:43:39.397Z,5.50
2023-07-21T20:46:05.953Z,5.05
2023-07-21T20:48:34.061Z,5.00
2023-07-21T20:51:03.134Z,4.95
2023-07-21T20:53:30.272Z,5.50
2023-07-21T20:56:00.707Z,5.13
2023-07-21T20:58:29.545Z,5.20
2023-07-21T21:01:02.377Z,5.60
2023-07-21T21:03:31.325Z,5.35
2023-07-21T21:06:07.257Z,5.07
2023-07-21T21:08:36.130Z,4.60
2023-07-21T21:11:03.188Z,4.95
2023-07-21T21:13:29.842Z,4.73
2023-07-21T21:16:02.901Z,4.55
2023-07-21T21:18:32.037Z,5.00
2023-07-21T21:20:58.675Z,4.95
2023-07-21T21:23:27.264Z,5.22
2023-07-21T21:25:57.607Z,4.97
2023-07-21T21:28:24.833Z,4.45
2023-07-21T21:30:58.879Z,4.38
2023-07-21T21:33:26.238Z,4.20
2023-07-21T21:35:56.310Z,5.07
2023-07-21T21:38:25.333Z,4.32
2023-07-21T21:40:54.995Z,4.22
2023-07-21T21:43:23.741Z,4.15
2023-07-21T21:45:51.878Z,4.60
2023-07-21T21:48:20.925Z,3.92
2023-07-21T21:50:48.693Z,4.07
2023-07-21T21:53:15.191Z,3.65
2023-07-21T21:55:43.991Z,3.90
2023-07-21T21:58:10.831Z,3.72
2023-07-21T22:00:41.750Z,3.90
2023-07-21T22:03:12.751Z,3.55
2023-07-21T22:05:39.491Z,3.53
2023-07-21T22:08:06.066Z,3.58
2023-07-21T22:10:32.566Z,3.50
2023-07-21T22:13:02.291Z,3.60
2023-07-21T22:15:28.833Z,3.58
2023-07-21T22:17:59.841Z,3.22
2023-07-21T22:20:28.109Z,3.67
2023-07-21T22:22:55.017Z,3.45
2023-07-21T22:25:32.235Z,3.90
2023-07-21T22:28:04.590Z,3.70
2023-07-21T22:30:34.370Z,3.42
2023-07-21T22:33:02.291Z,3.72
2023-07-21T22:35:29.739Z,3.60
2023-07-21T22:38:03.674Z,3.63
2023-07-21T22:40:36.638Z,3.47
2023-07-21T22:43:03.658Z,3.92
2023-07-21T22:45:32.782Z,3.63
2023-07-21T22:48:01.481Z,4.10
2023-07-21T22:50:28.105Z,3.97
2023-07-21T22:52:59.568Z,3.85
2023-07-21T22:55:28.505Z,4.07
2023-07-21T22:57:57.389Z,4.03
2023-07-21T23:00:26.383Z,4.30
2023-07-21T23:02:55.580Z,3.83
2023-07-21T23:05:22.702Z,4.35
2023-07-21T23:07:51.888Z,4.28
2023-07-21T23:10:18.876Z,4.40
2023-07-21T23:12:46.975Z,4.35
2023-07-21T23:15:13.522Z,4.55
2023-07-21T23:17:42.904Z,4.45
2023-07-21T23:20:12.265Z,4.65
2023-07-21T23:22:38.773Z,4.35
2023-07-21T23:25:15.249Z,4.50
2023-07-21T23:27:44.484Z,4.32
2023-07-21T23:30:12.896Z,4.57
2023-07-21T23:32:39.621Z,4.88
2023-07-21T23:35:07.497Z,4.97
2023-07-21T23:37:33.999Z,4.90
2023-07-21T23:40:07.194Z,4.80
2023-07-21T23:42:33.690Z,5.40
2023-07-21T23:45:00.942Z,5.22
2023-07-21T23:47:28.285Z,5.75
2023-07-21T23:49:54.844Z,5.97
2023-07-21T23:52:21.326Z,5.80
2023-07-21T23:54:47.869Z,5.75
2023-07-21T23:57:16.909Z,5.70
2023-07-21T23:59:48.256Z,5.63
